Time;durP1;ratioP1;P1;durP2;ratioP2;P2;SDS_P1;SDS_P2;PMS_P1;PMS_P2;Temp;Humidity;BMP_temperature;BMP_pressure;BME280_temperature;BME280_humidity;BME280_pressure;Samples;Min_cycle;Max_cycle;Signal;HPM_P1;HPM_P2
2021/09/08 00:01:21;;;;;;;22.70;14.77;;;;;;;;;;5124665;28;20044;-83
2021/09/08 00:03:48;;;;;;;22.02;14.02;;;;;;;;;;5125339;28;20048;-83
2021/09/08 00:06:15;;;;;;;25.90;15.38;;;;;;;;;;5124703;28;20079;-84
2021/09/08 00:08:41;;;;;;;26.02;15.75;;;;;;;;;;5124143;28;20055;-83
2021/09/08 00:11:14;;;;;;;23.55;15.23;;;;;;;;;;5107135;28;20435;-83
2021/09/08 00:13:41;;;;;;;21.70;13.52;;;;;;;;;;5121899;28;20487;-83
2021/09/08 00:16:07;;;;;;;24.30;14.13;;;;;;;;;;5123248;28;20048;-83
2021/09/08 00:18:34;;;;;;;18.00;12.38;;;;;;;;;;5105602;28;20412;-83
2021/09/08 00:21:01;;;;;;;22.30;14.90;;;;;;;;;;5123492;28;20328;-84
2021/09/08 00:23:27;;;;;;;22.67;14.90;;;;;;;;;;5124064;28;20125;-83
2021/09/08 00:25:54;;;;;;;21.90;14.10;;;;;;;;;;5123525;28;20058;-83
2021/09/08 00:28:27;;;;;;;23.65;13.88;;;;;;;;;;5104109;28;20111;-83
2021/09/08 00:30:53;;;;;;;23.55;14.88;;;;;;;;;;5122371;28;20052;-83
2021/09/08 00:33:20;;;;;;;25.77;15.57;;;;;;;;;;5104355;28;20428;-83
2021/09/08 00:35:48;;;;;;;21.42;13.93;;;;;;;;;;5122124;28;20058;-83
2021/09/08 00:38:18;;;;;;;25.08;14.13;;;;;;;;;;5108423;28;20050;-82
2021/09/08 00:40:44;;;;;;;19.80;13.05;;;;;;;;;;5116990;28;20051;-82
2021/09/08 00:43:11;;;;;;;21.40;13.95;;;;;;;;;;5135148;28;20056;-83
2021/09/08 00:45:40;;;;;;;23.25;14.15;;;;;;;;;;5124066;28;20122;-84
2021/09/08 00:48:07;;;;;;;19.70;12.52;;;;;;;;;;5123338;28;20107;-83
2021/09/08 00:50:36;;;;;;;18.55;12.65;;;;;;;;;;5106014;28;20048;-84
2021/09/08 00:53:03;;;;;;;19.85;11.65;;;;;;;;;;5124815;27;20043;-82
2021/09/08 00:55:30;;;;;;;17.13;12.60;;;;;;;;;;5119661;28;20115;-83
2021/09/08 00:58:06;;;;;;;17.73;12.30;;;;;;;;;;5117319;28;20039;-84
2021/09/08 01:00:36;;;;;;;20.42;11.38;;;;;;;;;;5122588;28;20047;-83
2021/09/08 01:03:09;;;;;;;24.20;12.75;;;;;;;;;;5104282;28;20134;-83
2021/09/08 01:05:39;;;;;;;16.35;11.10;;;;;;;;;;5115547;27;20073;-83
2021/09/08 01:08:09;;;;;;;18.42;12.45;;;;;;;;;;5131312;27;20116;-83
2021/09/08 01:10:36;;;;;;;19.27;12.25;;;;;;;;;;5089267;28;20047;-84
2021/09/08 01:13:06;;;;;;;15.57;11.43;;;;;;;;;;5122699;28;20470;-83
2021/09/08 01:15:38;;;;;;;18.30;11.00;;;;;;;;;;5105783;28;20047;-83
2021/09/08 01:18:11;;;;;;;17.17;11.30;;;;;;;;;;5103346;28;20058;-84
2021/09/08 01:20:40;;;;;;;19.45;13.07;;;;;;;;;;5123067;28;20400;-84
2021/09/08 01:23:10;;;;;;;21.27;12.90;;;;;;;;;;5122701;28;20407;-83
2021/09/08 01:25:36;;;;;;;18.42;11.90;;;;;;;;;;5123761;28;20044;-83
2021/09/08 01:28:06;;;;;;;18.85;11.50;;;;;;;;;;5121181;28;20465;-83
2021/09/08 01:30:33;;;;;;;18.38;12.45;;;;;;;;;;5121031;28;20175;-83
2021/09/08 01:33:10;;;;;;;22.73;14.27;;;;;;;;;;5103029;28;20457;-83
2021/09/08 01:35:37;;;;;;;18.48;12.88;;;;;;;;;;5123032;28;20316;-83
2021/09/08 01:38:04;;;;;;;17.95;12.30;;;;;;;;;;5104005;28;20066;-83
2021/09/08 01:40:30;;;;;;;18.95;12.52;;;;;;;;;;5121998;28;20044;-83
2021/09/08 01:42:57;;;;;;;18.75;12.57;;;;;;;;;;5100185;28;20324;-83
2021/09/08 01:45:25;;;;;;;19.75;12.65;;;;;;;;;;5101848;28;20044;-84
2021/09/08 01:47:56;;;;;;;19.73;12.05;;;;;;;;;;5101858;28;20040;-83
2021/09/08 01:50:25;;;;;;;17.60;12.32;;;;;;;;;;5101004;28;20056;-84
2021/09/08 01:53:06;;;;;;;19.20;12.68;;;;;;;;;;5099883;28;20060;-83
2021/09/08 01:55:35;;;;;;;16.38;11.55;;;;;;;;;;5099694;28;20113;-83
2021/09/08 01:58:04;;;;;;;24.95;17.15;;;;;;;;;;5098176;28;20052;-83
2021/09/08 02:00:34;;;;;;;21.95;13.00;;;;;;;;;;5098750;28;20047;-84
2021/09/08 02:03:03;;;;;;;30.15;20.17;;;;;;;;;;5098650;28;20050;-84
2021/09/08 02:05:30;;;;;;;67.18;40.38;;;;;;;;;;5098928;28;20057;-83
2021/09/08 02:07:57;;;;;;;59.83;37.88;;;;;;;;;;5099389;28;20075;-84
2021/09/08 02:10:26;;;;;;;44.35;27.13;;;;;;;;;;5111452;28;20056;-83
2021/09/08 02:12:53;;;;;;;21.05;12.73;;;;;;;;;;5114422;28;20039;-83
2021/09/08 02:15:19;;;;;;;20.80;14.23;;;;;;;;;;5115002;28;20055;-83
2021/09/08 02:17:46;;;;;;;30.00;19.38;;;;;;;;;;5105317;28;20126;-83
2021/09/08 02:20:13;;;;;;;41.10;24.23;;;;;;;;;;5113441;28;20031;-83
2021/09/08 02:22:40;;;;;;;54.42;33.88;;;;;;;;;;5109932;28;20112;-83
2021/09/08 02:25:07;;;;;;;60.88;35.15;;;;;;;;;;5099948;28;20044;-84
2021/09/08 02:27:34;;;;;;;47.88;29.60;;;;;;;;;;5100097;28;20063;-83
2021/09/08 02:30:04;;;;;;;49.00;26.88;;;;;;;;;;5100114;28;20048;-83
2021/09/08 02:32:31;;;;;;;39.20;21.65;;;;;;;;;;5101531;28;20059;-83
2021/09/08 02:34:58;;;;;;;37.95;22.50;;;;;;;;;;5100388;28;20080;-83
2021/09/08 02:37:24;;;;;;;35.47;19.60;;;;;;;;;;5100822;28;20052;-83
2021/09/08 02:39:51;;;;;;;31.25;19.13;;;;;;;;;;5099780;28;20081;-84
2021/09/08 02:42:18;;;;;;;30.40;20.45;;;;;;;;;;5103984;28;20139;-84
2021/09/08 02:44:45;;;;;;;35.38;21.25;;;;;;;;;;5119250;28;20056;-84
2021/09/08 02:47:12;;;;;;;35.35;21.40;;;;;;;;;;5119588;28;20058;-84
2021/09/08 02:49:38;;;;;;;40.05;24.65;;;;;;;;;;5118818;28;20044;-83
2021/09/08 02:52:05;;;;;;;34.60;21.95;;;;;;;;;;5101523;28;20062;-83
2021/09/08 02:54:31;;;;;;;34.70;22.48;;;;;;;;;;5119865;28;20051;-83
2021/09/08 02:57:02;;;;;;;34.88;21.38;;;;;;;;;;5101105;28;20367;-83
2021/09/08 02:59:28;;;;;;;31.75;17.75;;;;;;;;;;5119132;28;20046;-83
2021/09/08 03:01:58;;;;;;;33.08;19.15;;;;;;;;;;5101771;28;20199;-83
2021/09/08 03:04:25;;;;;;;32.33;15.95;;;;;;;;;;5120544;28;20052;-83
2021/09/08 03:06:56;;;;;;;33.42;18.70;;;;;;;;;;5133901;27;20051;-83
2021/09/08 03:09:23;;;;;;;29.08;15.82;;;;;;;;;;5123259;27;20059;-84
2021/09/08 03:11:49;;;;;;;23.92;14.90;;;;;;;;;;5123355;27;20062;-84
2021/09/08 03:14:16;;;;;;;30.42;16.10;;;;;;;;;;5122733;27;20047;-83
2021/09/08 03:16:43;;;;;;;29.52;17.75;;;;;;;;;;5141028;27;20388;-83
2021/09/08 03:19:11;;;;;;;30.75;17.45;;;;;;;;;;5140798;27;20046;-83
2021/09/08 03:21:37;;;;;;;24.15;14.52;;;;;;;;;;5141060;27;20058;-83
2021/09/08 03:24:04;;;;;;;20.23;13.55;;;;;;;;;;5124193;27;20043;-84
2021/09/08 03:26:40;;;;;;;23.42;14.15;;;;;;;;;;5140904;27;20043;-83
2021/09/08 03:29:07;;;;;;;;;;;;;;;;;;5125380;28;20443;-83
2021/09/08 03:31:33;;;;;;;26.15;16.90;;;;;;;;;;5117584;28;19919;-83
2021/09/08 03:34:00;;;;;;;28.83;17.77;;;;;;;;;;5118331;28;20120;-83
2021/09/08 03:36:27;;;;;;;25.60;18.25;;;;;;;;;;5108490;28;20035;-83
2021/09/08 03:38:54;;;;;;;26.85;17.27;;;;;;;;;;5113345;28;20107;-83
2021/09/08 03:41:20;;;;;;;26.40;17.27;;;;;;;;;;5131977;28;20049;-83
2021/09/08 03:43:56;;;;;;;31.08;18.15;;;;;;;;;;5115162;28;20074;-83
2021/09/08 03:46:23;;;;;;;;;;;;;;;;;;5126937;28;20043;-84
2021/09/08 03:48:49;;;;;;;27.58;15.68;;;;;;;;;;5104146;28;19954;-83
2021/09/08 03:51:16;;;;;;;29.52;17.15;;;;;;;;;;5121299;28;20138;-84
2021/09/08 03:53:46;;;;;;;24.52;16.48;;;;;;;;;;5139210;27;20070;-83
2021/09/08 03:56:12;;;;;;;26.50;15.95;;;;;;;;;;5117886;28;20090;-83
2021/09/08 03:58:39;;;;;;;25.55;17.17;;;;;;;;;;5119406;27;20070;-83
2021/09/08 04:01:05;;;;;;;26.52;16.33;;;;;;;;;;5111073;28;20494;-83
2021/09/08 04:03:35;;;;;;;27.33;16.25;;;;;;;;;;5082924;28;20055;-83
2021/09/08 04:06:02;;;;;;;27.80;17.58;;;;;;;;;;5102050;28;20087;-83
2021/09/08 04:08:29;;;;;;;26.25;15.50;;;;;;;;;;5117361;28;20046;-83
2021/09/08 04:10:55;;;;;;;26.40;15.90;;;;;;;;;;5129092;27;20074;-83
2021/09/08 04:13:31;;;;;;;22.35;15.80;;;;;;;;;;5142292;27;20093;-83
2021/09/08 04:15:58;;;;;;;27.08;15.93;;;;;;;;;;5127075;27;20039;-83
2021/09/08 04:18:25;;;;;;;30.35;16.92;;;;;;;;;;5104715;28;20047;-83
2021/09/08 04:20:55;;;;;;;28.20;15.40;;;;;;;;;;5103935;28;20058;-83
2021/09/08 04:23:22;;;;;;;26.58;16.38;;;;;;;;;;5119557;28;20048;-84
2021/09/08 04:25:51;;;;;;;23.88;15.95;;;;;;;;;;5102582;28;20292;-83
2021/09/08 04:28:17;;;;;;;24.48;16.38;;;;;;;;;;5120170;28;20301;-83
2021/09/08 04:30:44;;;;;;;24.42;15.77;;;;;;;;;;5103470;28;20054;-83
2021/09/08 04:33:13;;;;;;;27.13;16.90;;;;;;;;;;5099028;28;20330;-83
2021/09/08 04:35:40;;;;;;;24.60;16.58;;;;;;;;;;5081864;28;20319;-83
2021/09/08 04:38:10;;;;;;;24.02;15.82;;;;;;;;;;5082689;28;20386;-83
2021/09/08 04:40:41;;;;;;;22.95;14.95;;;;;;;;;;5083247;28;20048;-83
2021/09/08 04:43:08;;;;;;;27.70;16.75;;;;;;;;;;5106609;28;20055;-83
2021/09/08 04:45:35;;;;;;;28.75;16.60;;;;;;;;;;5138278;27;20102;-83
2021/09/08 04:48:05;;;;;;;26.63;15.38;;;;;;;;;;5143577;27;20048;-83
2021/09/08 04:50:31;;;;;;;25.40;16.30;;;;;;;;;;5114587;28;20187;-83
2021/09/08 04:52:58;;;;;;;30.23;18.00;;;;;;;;;;5116783;28;20427;-83
2021/09/08 04:55:25;;;;;;;29.90;17.67;;;;;;;;;;5116813;28;20136;-84
2021/09/08 04:57:51;;;;;;;29.10;18.10;;;;;;;;;;5115114;28;20131;-84
2021/09/08 05:00:18;;;;;;;26.20;17.02;;;;;;;;;;5091999;28;20115;-83
2021/09/08 05:02:45;;;;;;;35.42;16.95;;;;;;;;;;5097254;27;20230;-84
2021/09/08 05:05:11;;;;;;;23.40;16.98;;;;;;;;;;5117674;28;20043;-84
2021/09/08 05:07:38;;;;;;;27.55;17.30;;;;;;;;;;5078674;28;20047;-83
2021/09/08 05:10:05;;;;;;;36.30;19.15;;;;;;;;;;5112640;28;20046;-83
2021/09/08 05:12:33;;;;;;;24.77;15.85;;;;;;;;;;5112968;28;20089;-83
2021/09/08 05:15:01;;;;;;;25.73;15.77;;;;;;;;;;5130540;27;20276;-83
2021/09/08 05:17:28;;;;;;;30.15;15.65;;;;;;;;;;5103772;28;20058;-84
2021/09/08 05:20:03;;;;;;;22.63;13.48;;;;;;;;;;5098569;28;20130;-84
2021/09/08 05:22:32;;;;;;;24.05;13.18;;;;;;;;;;5098131;28;20134;-84
2021/09/08 05:24:58;;;;;;;21.10;12.57;;;;;;;;;;5080510;28;20040;-84
2021/09/08 05:27:29;;;;;;;22.58;12.40;;;;;;;;;;5101723;28;20048;-83
2021/09/08 05:29:55;;;;;;;21.63;12.05;;;;;;;;;;5113175;28;20039;-85
2021/09/08 05:32:22;;;;;;;17.58;11.10;;;;;;;;;;5113067;28;20066;-84
2021/09/08 05:34:53;;;;;;;21.88;11.40;;;;;;;;;;5113411;28;20098;-84
2021/09/08 05:37:19;;;;;;;18.38;11.10;;;;;;;;;;5113317;28;20073;-83
2021/09/08 05:39:46;;;;;;;21.67;11.27;;;;;;;;;;5096771;28;20485;-83
2021/09/08 05:42:16;;;;;;;20.88;11.98;;;;;;;;;;5105702;28;20055;-83
2021/09/08 05:44:43;;;;;;;16.33;11.13;;;;;;;;;;5106188;28;20047;-83
2021/09/08 05:47:09;;;;;;;21.05;11.18;;;;;;;;;;5105411;28;20357;-84
2021/09/08 05:49:43;;;;;;;22.55;10.35;;;;;;;;;;5092087;28;20069;-83
2021/09/08 05:52:18;;;;;;;19.20;10.48;;;;;;;;;;5093321;28;20082;-83
2021/09/08 05:54:45;;;;;;;16.80;9.90;;;;;;;;;;5112229;28;20194;-83
2021/09/08 05:57:14;;;;;;;16.63;11.27;;;;;;;;;;5110128;28;20355;-83
2021/09/08 05:59:41;;;;;;;19.05;9.52;;;;;;;;;;5112035;28;20092;-83
2021/09/08 06:02:08;;;;;;;18.95;10.02;;;;;;;;;;5099673;28;20242;-83
2021/09/08 06:04:38;;;;;;;16.25;9.80;;;;;;;;;;5126492;27;20052;-83
2021/09/08 06:07:10;;;;;;;16.45;9.82;;;;;;;;;;5106059;28;20043;-84
2021/09/08 06:09:40;;;;;;;14.25;9.57;;;;;;;;;;5080308;28;20056;-83
2021/09/08 06:12:06;;;;;;;19.75;10.48;;;;;;;;;;5077467;28;20065;-84
2021/09/08 06:14:48;;;;;;;18.50;10.77;;;;;;;;;;5096209;28;20111;-85
2021/09/08 06:17:15;;;;;;;21.48;10.57;;;;;;;;;;5113431;28;20359;-83
2021/09/08 06:19:42;;;;;;;17.10;10.48;;;;;;;;;;5112332;28;20048;-83
2021/09/08 06:22:15;;;;;;;18.35;10.30;;;;;;;;;;5101277;28;20054;-83
2021/09/08 06:24:41;;;;;;;17.73;10.00;;;;;;;;;;5113555;28;20110;-83
2021/09/08 06:27:08;;;;;;;19.15;10.43;;;;;;;;;;5102205;28;20147;-83
2021/09/08 06:29:41;;;;;;;19.33;9.40;;;;;;;;;;5105212;28;20063;-82
2021/09/08 06:32:08;;;;;;;15.75;9.73;;;;;;;;;;5122018;28;20212;-83
2021/09/08 06:34:38;;;;;;;19.17;10.13;;;;;;;;;;5110462;28;20262;-82
2021/09/08 06:37:11;;;;;;;18.40;10.07;;;;;;;;;;5099032;28;20439;-83
2021/09/08 06:39:40;;;;;;;17.58;9.85;;;;;;;;;;5101930;28;20071;-83
2021/09/08 06:42:07;;;;;;;16.63;9.73;;;;;;;;;;5095564;28;20051;-83
2021/09/08 06:44:43;;;;;;;15.05;9.20;;;;;;;;;;5109998;27;20055;-83
2021/09/08 06:47:09;;;;;;;17.13;9.57;;;;;;;;;;5109456;28;20057;-83
2021/09/08 06:49:42;;;;;;;17.23;9.02;;;;;;;;;;5086805;28;20412;-83
2021/09/08 06:52:10;;;;;;;16.63;8.90;;;;;;;;;;5111905;28;20075;-83
2021/09/08 06:54:40;;;;;;;20.15;9.27;;;;;;;;;;5097550;28;20054;-84
2021/09/08 06:57:07;;;;;;;19.17;9.60;;;;;;;;;;5112940;28;20052;-83
2021/09/08 06:59:33;;;;;;;14.43;8.55;;;;;;;;;;5094571;28;20054;-83
2021/09/08 07:02:01;;;;;;;15.63;9.15;;;;;;;;;;5107301;28;20055;-83
2021/09/08 07:04:32;;;;;;;16.98;9.10;;;;;;;;;;5104077;28;20052;-83
2021/09/08 07:07:03;;;;;;;19.02;9.63;;;;;;;;;;5107974;28;20114;-83
2021/09/08 07:09:30;;;;;;;18.70;9.15;;;;;;;;;;5094580;28;20313;-83
2021/09/08 07:12:04;;;;;;;15.90;9.43;;;;;;;;;;5103194;28;20044;-83
2021/09/08 07:14:32;;;;;;;16.23;9.20;;;;;;;;;;5088448;28;20044;-84
2021/09/08 07:17:02;;;;;;;14.32;9.20;;;;;;;;;;5083621;28;20128;-83
2021/09/08 07:19:30;;;;;;;12.48;8.43;;;;;;;;;;5128375;27;20066;-84
2021/09/08 07:21:56;;;;;;;11.77;8.05;;;;;;;;;;5125069;27;20051;-83
2021/09/08 07:24:23;;;;;;;13.85;8.90;;;;;;;;;;5117649;27;20052;-83
2021/09/08 07:26:55;;;;;;;11.95;8.20;;;;;;;;;;5079507;28;20406;-84
2021/09/08 07:29:22;;;;;;;13.77;8.65;;;;;;;;;;5075982;28;20044;-84
2021/09/08 07:31:49;;;;;;;19.60;9.15;;;;;;;;;;5077186;28;20327;-84
2021/09/08 07:34:19;;;;;;;12.88;8.70;;;;;;;;;;5112928;28;20120;-83
2021/09/08 07:36:49;;;;;;;16.15;9.75;;;;;;;;;;5078089;28;20172;-83
2021/09/08 07:39:15;;;;;;;17.67;9.15;;;;;;;;;;5095002;28;20044;-83
2021/09/08 07:41:43;;;;;;;16.42;9.25;;;;;;;;;;5098046;28;20040;-83
2021/09/08 07:44:10;;;;;;;19.30;8.70;;;;;;;;;;5116699;28;20217;-84
2021/09/08 07:46:37;;;;;;;14.05;8.50;;;;;;;;;;5101398;28;20089;-84
2021/09/08 07:49:07;;;;;;;14.05;8.60;;;;;;;;;;5096707;28;20366;-83
2021/09/08 07:51:34;;;;;;;17.55;8.65;;;;;;;;;;5110412;28;20071;-84
2021/09/08 07:54:01;;;;;;;15.77;9.30;;;;;;;;;;5110876;28;20047;-85
2021/09/08 07:56:29;;;;;;;16.33;8.20;;;;;;;;;;5107270;28;20059;-85
2021/09/08 07:58:56;;;;;;;15.48;8.82;;;;;;;;;;5110623;28;20075;-85
2021/09/08 08:01:33;;;;;;;13.15;8.25;;;;;;;;;;5128746;27;20114;-84
2021/09/08 08:04:09;;;;;;;13.90;8.90;;;;;;;;;;5101547;28;20039;-84
2021/09/08 08:06:37;;;;;;;21.10;8.00;;;;;;;;;;5100671;28;20199;-83
2021/09/08 08:09:04;;;;;;;14.80;9.10;;;;;;;;;;5111505;28;20066;-83
2021/09/08 08:11:31;;;;;;;13.45;8.23;;;;;;;;;;5100426;28;20058;-82
2021/09/08 08:14:04;;;;;;;11.75;8.25;;;;;;;;;;5108166;28;20232;-83
2021/09/08 08:16:35;;;;;;;12.35;7.82;;;;;;;;;;5110437;28;20231;-82
2021/09/08 08:19:02;;;;;;;13.50;8.70;;;;;;;;;;5122025;28;20096;-84
2021/09/08 08:21:29;;;;;;;21.13;8.35;;;;;;;;;;5103405;28;20047;-84
2021/09/08 08:23:56;;;;;;;13.60;7.93;;;;;;;;;;5116058;28;20524;-84
2021/09/08 08:26:25;;;;;;;11.18;8.20;;;;;;;;;;5116972;28;20380;-84
2021/09/08 08:28:55;;;;;;;15.75;8.77;;;;;;;;;;5102661;28;20044;-83
2021/09/08 08:31:25;;;;;;;13.70;8.35;;;;;;;;;;5116664;28;20112;-83
2021/09/08 08:34:05;;;;;;;17.55;9.25;;;;;;;;;;5141127;27;20038;-83
2021/09/08 08:36:51;;;;;;;13.30;8.18;;;;;;;;;;5121551;27;20153;-84
2021/09/08 08:39:25;;;;;;;12.48;8.07;;;;;;;;;;5107702;28;20047;-84
2021/09/08 08:42:23;;;;;;;12.98;9.20;;;;;;;;;;5116059;28;20158;-83
2021/09/08 08:44:57;;;;;;;13.15;9.07;;;;;;;;;;5096882;28;20864;-82
2021/09/08 08:47:27;;;;;;;18.10;9.90;;;;;;;;;;5106155;28;20070;-83
2021/09/08 08:50:01;;;;;;;13.93;9.13;;;;;;;;;;5112184;28;20106;-83
2021/09/08 08:52:31;;;;;;;12.60;8.60;;;;;;;;;;5102150;28;20047;-83
2021/09/08 08:55:06;;;;;;;21.27;9.55;;;;;;;;;;5120861;27;20106;-83
2021/09/08 08:57:36;;;;;;;15.43;8.68;;;;;;;;;;5105930;28;20062;-82
2021/09/08 09:00:14;;;;;;;15.98;8.02;;;;;;;;;;5112356;28;20082;-82
2021/09/08 09:02:44;;;;;;;15.00;8.52;;;;;;;;;;5110450;28;20054;-83
2021/09/08 09:05:26;;;;;;;16.23;8.70;;;;;;;;;;5100804;28;20147;-82
2021/09/08 09:07:53;;;;;;;13.25;8.90;;;;;;;;;;5126849;27;20042;-83
2021/09/08 09:10:23;;;;;;;11.20;7.85;;;;;;;;;;5139360;27;20078;-83
2021/09/08 09:12:50;;;;;;;12.70;8.00;;;;;;;;;;5098771;28;20051;-84
2021/09/08 09:15:18;;;;;;;15.43;8.38;;;;;;;;;;5095787;28;20047;-83
2021/09/08 09:17:50;;;;;;;15.20;8.27;;;;;;;;;;5091847;28;20149;-83
2021/09/08 09:20:24;;;;;;;14.27;8.57;;;;;;;;;;5103241;28;20061;-82
2021/09/08 09:22:56;;;;;;;14.38;8.40;;;;;;;;;;5111908;28;20326;-83
2021/09/08 09:25:27;;;;;;;15.82;9.57;;;;;;;;;;5093832;28;20154;-83
2021/09/08 09:27:59;;;;;;;13.25;8.70;;;;;;;;;;5088397;28;20101;-83
2021/09/08 09:30:29;;;;;;;15.90;9.35;;;;;;;;;;5096606;28;20047;-83
2021/09/08 09:33:02;;;;;;;13.65;8.57;;;;;;;;;;5114671;28;20057;-83
2021/09/08 09:35:30;;;;;;;13.77;7.88;;;;;;;;;;5096089;28;20083;-83
2021/09/08 09:38:02;;;;;;;18.88;8.20;;;;;;;;;;5112620;28;20055;-85
2021/09/08 09:40:32;;;;;;;13.70;7.22;;;;;;;;;;5087154;28;20043;-83
2021/09/08 09:43:07;;;;;;;10.48;7.20;;;;;;;;;;5101246;28;20115;-83
2021/09/08 09:45:38;;;;;;;9.77;5.95;;;;;;;;;;5137935;27;20074;-83
2021/09/08 09:48:05;;;;;;;10.77;7.15;;;;;;;;;;5097010;28;20056;-83
2021/09/08 09:50:46;;;;;;;12.15;6.72;;;;;;;;;;5092974;28;20112;-84
2021/09/08 09:53:27;;;;;;;12.13;6.63;;;;;;;;;;5104638;28;20040;-84
2021/09/08 09:56:06;;;;;;;10.95;6.78;;;;;;;;;;5086843;28;20043;-83
2021/09/08 09:58:39;;;;;;;13.02;6.80;;;;;;;;;;5073032;28;20040;-84
2021/09/08 10:01:22;;;;;;;10.63;5.80;;;;;;;;;;5073398;28;20113;-84
2021/09/08 10:03:50;;;;;;;7.95;5.93;;;;;;;;;;5091102;28;20222;-83
2021/09/08 10:06:17;;;;;;;14.75;7.00;;;;;;;;;;5107995;28;20063;-85
2021/09/08 10:08:47;;;;;;;10.82;6.25;;;;;;;;;;5100219;28;20093;-83
2021/09/08 10:11:17;;;;;;;12.02;6.40;;;;;;;;;;5114997;27;20150;-83
2021/09/08 10:13:53;;;;;;;12.15;5.70;;;;;;;;;;5075687;28;20143;-87
2021/09/08 10:16:35;;;;;;;9.88;5.35;;;;;;;;;;5092381;28;20114;-83
2021/09/08 10:19:07;;;;;;;7.82;5.13;;;;;;;;;;5097645;28;20048;-84
2021/09/08 10:21:43;;;;;;;9.82;6.45;;;;;;;;;;5092887;28;20070;-84
2021/09/08 10:24:32;;;;;;;9.13;5.38;;;;;;;;;;5091659;28;20043;-84
2021/09/08 10:27:30;;;;;;;13.02;5.68;;;;;;;;;;5080607;28;20079;-84
2021/09/08 10:30:03;;;;;;;6.78;5.00;;;;;;;;;;5071868;28;20291;-83
2021/09/08 10:32:31;;;;;;;17.90;6.43;;;;;;;;;;5071295;28;20232;-84
2021/09/08 10:35:20;;;;;;;13.20;5.93;;;;;;;;;;5070196;28;20131;-83
2021/09/08 10:37:52;;;;;;;9.95;6.05;;;;;;;;;;5087046;28;20355;-84
2021/09/08 10:40:21;;;;;;;11.23;6.53;;;;;;;;;;5088849;28;20413;-83
2021/09/08 10:42:56;;;;;;;12.27;6.22;;;;;;;;;;5090732;28;20055;-85
2021/09/08 10:45:32;;;;;;;12.73;5.68;;;;;;;;;;5071968;28;20064;-83
2021/09/08 10:48:03;;;;;;;9.43;5.63;;;;;;;;;;5102052;28;20244;-83
2021/09/08 10:50:45;;;;;;;9.07;5.20;;;;;;;;;;5071853;28;20070;-83
2021/09/08 10:53:23;;;;;;;13.98;4.93;;;;;;;;;;5106993;27;20419;-83
2021/09/08 10:55:51;;;;;;;7.10;4.78;;;;;;;;;;5083161;28;20436;-82
2021/09/08 10:58:18;;;;;;;7.47;5.20;;;;;;;;;;5090383;28;20315;-83
2021/09/08 11:00:46;;;;;;;10.23;4.80;;;;;;;;;;5095483;28;20299;-84
2021/09/08 11:03:14;;;;;;;10.18;5.25;;;;;;;;;;5100552;28;20375;-84
2021/09/08 11:05:58;;;;;;;6.80;4.43;;;;;;;;;;5081498;28;20052;-83
2021/09/08 11:08:30;;;;;;;7.40;4.22;;;;;;;;;;5098538;28;20044;-84
2021/09/08 11:11:08;;;;;;;7.55;4.28;;;;;;;;;;5094195;28;20236;-83
2021/09/08 11:13:40;;;;;;;7.50;4.70;;;;;;;;;;5100278;28;20206;-83
2021/09/08 11:16:22;;;;;;;8.15;4.00;;;;;;;;;;5093637;28;20098;-83
2021/09/08 11:18:48;;;;;;;8.05;3.75;;;;;;;;;;5084601;28;20052;-84
2021/09/08 11:21:17;;;;;;;4.90;3.75;;;;;;;;;;5079542;28;20109;-83
2021/09/08 11:23:55;;;;;;;7.28;3.65;;;;;;;;;;5077526;28;20049;-84
2021/09/08 11:26:25;;;;;;;4.13;3.63;;;;;;;;;;5098756;28;20040;-83
2021/09/08 11:28:56;;;;;;;4.72;3.40;;;;;;;;;;5101723;28;20040;-84
2021/09/08 11:31:22;;;;;;;5.60;3.78;;;;;;;;;;5104869;28;20098;-83
2021/09/08 11:33:49;;;;;;;8.07;3.00;;;;;;;;;;5095317;28;20055;-83
2021/09/08 11:36:17;;;;;;;4.63;3.40;;;;;;;;;;5097387;28;20052;-83
2021/09/08 11:38:58;;;;;;;5.10;3.35;;;;;;;;;;5095749;28;20159;-82
2021/09/08 11:41:33;;;;;;;5.03;3.17;;;;;;;;;;5096341;28;20074;-84
2021/09/08 11:44:03;;;;;;;5.95;3.30;;;;;;;;;;5091295;28;20237;-84
2021/09/08 11:46:32;;;;;;;9.18;3.50;;;;;;;;;;5099972;28;20040;-84
2021/09/08 11:49:11;;;;;;;6.30;3.38;;;;;;;;;;5096818;28;20048;-83
2021/09/08 11:51:39;;;;;;;6.95;3.95;;;;;;;;;;5077640;28;20052;-83
2021/09/08 11:54:07;;;;;;;11.55;3.65;;;;;;;;;;5104837;28;20044;-82
2021/09/08 11:56:38;;;;;;;4.45;3.22;;;;;;;;;;5074828;28;20421;-83
2021/09/08 11:59:08;;;;;;;7.50;3.30;;;;;;;;;;5075343;28;20048;-82
2021/09/08 12:01:39;;;;;;;6.10;3.65;;;;;;;;;;5073945;28;20047;-82
2021/09/08 12:04:09;;;;;;;6.20;3.17;;;;;;;;;;5072604;28;20056;-82
2021/09/08 12:07:04;;;;;;;4.82;3.53;;;;;;;;;;5115398;27;20130;-82
2021/09/08 12:09:32;;;;;;;4.75;3.47;;;;;;;;;;5072878;28;20314;-84
2021/09/08 12:11:59;;;;;;;4.82;3.10;;;;;;;;;;5070108;28;20316;-84
2021/09/08 12:14:32;;;;;;;4.50;2.60;;;;;;;;;;5075252;28;20400;-82
2021/09/08 12:17:00;;;;;;;7.25;3.15;;;;;;;;;;5092384;28;20079;-84
2021/09/08 12:19:31;;;;;;;4.07;2.65;;;;;;;;;;5093128;28;20144;-82
2021/09/08 12:22:17;;;;;;;6.70;3.20;;;;;;;;;;5096209;28;20192;-84
2021/09/08 12:24:51;;;;;;;4.75;3.05;;;;;;;;;;5088109;28;20056;-84
2021/09/08 12:27:25;;;;;;;6.53;3.50;;;;;;;;;;5088187;28;20058;-84
2021/09/08 12:29:52;;;;;;;6.65;3.08;;;;;;;;;;5084536;28;20098;-84
2021/09/08 12:32:19;;;;;;;6.47;3.15;;;;;;;;;;5075673;28;20135;-84
2021/09/08 12:34:51;;;;;;;6.53;3.30;;;;;;;;;;5070953;28;20174;-84
2021/09/08 12:37:28;;;;;;;5.28;3.08;;;;;;;;;;5089295;28;20411;-83
2021/09/08 12:40:11;;;;;;;7.55;3.78;;;;;;;;;;5083722;28;20063;-83
2021/09/08 12:42:40;;;;;;;5.35;2.83;;;;;;;;;;5098509;28;20059;-85
2021/09/08 12:45:07;;;;;;;5.90;2.90;;;;;;;;;;5088996;28;20052;-83
2021/09/08 12:47:55;;;;;;;7.68;3.13;;;;;;;;;;5135532;27;20058;-83
2021/09/08 12:50:22;;;;;;;4.60;2.97;;;;;;;;;;5101326;28;20048;-84
2021/09/08 12:52:48;;;;;;;4.60;2.67;;;;;;;;;;5107206;27;20046;-83
2021/09/08 12:55:15;;;;;;;3.80;2.53;;;;;;;;;;5123651;27;20059;-82
2021/09/08 12:57:44;;;;;;;4.53;2.58;;;;;;;;;;5114177;28;20047;-83
2021/09/08 13:00:11;;;;;;;4.85;2.72;;;;;;;;;;5116395;28;20055;-83
2021/09/08 13:02:41;;;;;;;8.15;3.00;;;;;;;;;;5095243;28;20318;-83
2021/09/08 13:05:08;;;;;;;6.40;2.50;;;;;;;;;;5123245;28;20061;-83
2021/09/08 13:07:35;;;;;;;6.75;2.90;;;;;;;;;;5111599;28;20035;-83
2021/09/08 13:10:06;;;;;;;4.43;2.65;;;;;;;;;;5103615;28;20115;-84
2021/09/08 13:12:33;;;;;;;5.22;2.50;;;;;;;;;;5096684;28;20043;-83
2021/09/08 13:15:00;;;;;;;3.58;3.05;;;;;;;;;;5115831;28;20052;-83
2021/09/08 13:17:26;;;;;;;3.70;2.33;;;;;;;;;;5110285;28;20031;-85
2021/09/08 13:19:59;;;;;;;3.35;1.98;;;;;;;;;;5118176;28;20051;-83
2021/09/08 13:22:26;;;;;;;2.88;2.40;;;;;;;;;;5111912;28;20113;-83
2021/09/08 13:24:54;;;;;;;5.38;2.35;;;;;;;;;;5104874;28;20050;-83
2021/09/08 13:27:27;;;;;;;4.30;2.08;;;;;;;;;;5091075;28;20046;-83
2021/09/08 13:29:56;;;;;;;4.70;2.60;;;;;;;;;;5097625;28;20047;-84
2021/09/08 13:32:26;;;;;;;7.53;2.40;;;;;;;;;;5095899;28;20561;-86
2021/09/08 13:34:58;;;;;;;3.58;2.55;;;;;;;;;;5089387;28;20047;-83
2021/09/08 13:37:25;;;;;;;6.32;2.50;;;;;;;;;;5109102;27;20224;-83
2021/09/08 13:40:00;;;;;;;;;;;;;;;;;;5104229;28;20339;-84
2021/09/08 13:42:28;;;;;;;4.70;2.55;;;;;;;;;;5129235;27;19927;-83
2021/09/08 13:44:55;;;;;;;3.10;2.40;;;;;;;;;;5113051;28;20044;-84
2021/09/08 13:47:25;;;;;;;2.38;2.17;;;;;;;;;;5092666;28;20043;-84
2021/09/08 13:49:58;;;;;;;2.83;2.30;;;;;;;;;;5091684;28;20314;-84
2021/09/08 13:52:31;;;;;;;2.97;1.90;;;;;;;;;;5088844;28;20231;-84
2021/09/08 13:55:00;;;;;;;3.88;2.25;;;;;;;;;;5113362;28;20052;-83
2021/09/08 13:57:47;;;;;;;3.63;2.40;;;;;;;;;;5092385;28;20059;-84
2021/09/08 14:00:13;;;;;;;3.83;2.22;;;;;;;;;;5108581;28;20051;-84
2021/09/08 14:02:42;;;;;;;3.78;2.55;;;;;;;;;;5095155;28;20249;-84
2021/09/08 14:05:09;;;;;;;3.95;2.35;;;;;;;;;;5112289;28;20596;-84
2021/09/08 14:07:43;;;;;;;3.78;2.40;;;;;;;;;;5120171;28;20036;-83
2021/09/08 14:10:10;;;;;;;3.53;2.47;;;;;;;;;;5113926;28;20081;-82
2021/09/08 14:12:40;;;;;;;4.13;2.80;;;;;;;;;;5120065;28;20066;-82
2021/09/08 14:15:15;;;;;;;3.22;2.30;;;;;;;;;;5109752;28;20047;-85
2021/09/08 14:17:44;;;;;;;;;;;;;;;;;;5079406;28;20173;-82
2021/09/08 14:20:11;;;;;;;6.25;3.08;;;;;;;;;;5093874;28;19955;-81
2021/09/08 14:22:38;;;;;;;5.85;2.70;;;;;;;;;;5093346;28;20052;-82
2021/09/08 14:25:05;;;;;;;4.35;2.80;;;;;;;;;;5075129;28;20188;-81
2021/09/08 14:27:32;;;;;;;3.63;2.67;;;;;;;;;;5078856;28;20106;-82
2021/09/08 14:30:03;;;;;;;3.28;2.38;;;;;;;;;;5122232;27;20307;-81
2021/09/08 14:32:29;;;;;;;7.82;3.08;;;;;;;;;;5082571;28;20058;-81
2021/09/08 14:34:56;;;;;;;4.15;2.60;;;;;;;;;;5088880;28;20211;-81
2021/09/08 14:37:23;;;;;;;3.42;2.47;;;;;;;;;;5089827;28;20058;-81
2021/09/08 14:39:49;;;;;;;5.10;2.78;;;;;;;;;;5106994;28;20039;-80
2021/09/08 14:42:19;;;;;;;4.97;2.83;;;;;;;;;;5087191;28;20435;-82
2021/09/08 14:44:46;;;;;;;3.38;2.33;;;;;;;;;;5119857;27;20395;-82